createdAt,value
2018-01-18T00:00:25.433Z,89.91
2018-01-18T00:01:35.603Z,89.91
2018-01-18T00:02:45.765Z,89.91
2018-01-18T00:03:55.882Z,89.63
2018-01-18T00:05:06.045Z,89.91
2018-01-18T00:06:15.931Z,89.91
2018-01-18T00:07:26.200Z,89.91
2018-01-18T00:08:36.355Z,90.1
2018-01-18T00:09:46.521Z,90.01
2018-01-18T00:10:56.655Z,90.1
2018-01-18T00:12:06.842Z,90.1
2018-01-18T00:13:16.684Z,89.72
2018-01-18T00:14:26.876Z,90.1
2018-01-18T00:15:36.751Z,90.1
2018-01-18T00:16:46.912Z,89.91
2018-01-18T00:17:57.065Z,89.91
2018-01-18T00:19:07.195Z,90.1
2018-01-18T00:20:17.308Z,90.01
2018-01-18T00:21:27.476Z,89.72
2018-01-18T00:22:37.573Z,89.53
2018-01-18T00:23:47.700Z,89.53
2018-01-18T00:24:57.894Z,89.63
2018-01-18T00:26:08.087Z,89.34
2018-01-18T00:27:18.230Z,90.01
2018-01-18T00:28:28.387Z,89.72
2018-01-18T00:29:38.615Z,90.2
2018-01-18T00:30:48.496Z,90.1
2018-01-18T00:31:58.667Z,89.91
2018-01-18T00:33:08.549Z,89.91
2018-01-18T00:34:18.684Z,90.01
2018-01-18T00:35:28.919Z,89.91
2018-01-18T00:36:39.138Z,89.82
2018-01-18T00:37:49.280Z,89.82
2018-01-18T00:38:59.543Z,89.91
2018-01-18T00:40:09.898Z,90.2
2018-01-18T00:41:20.033Z,90.39
2018-01-18T00:42:30.218Z,90.58
2018-01-18T00:43:40.381Z,90.1
2018-01-18T00:44:50.600Z,90.58
2018-01-18T00:46:00.821Z,90.48
2018-01-18T00:47:11.062Z,90.58
2018-01-18T00:48:21.207Z,90.67
2018-01-18T00:49:31.306Z,90.77
2018-01-18T00:50:41.577Z,90.58
2018-01-18T00:51:51.684Z,90.39
2018-01-18T00:53:01.832Z,90.29
2018-01-18T00:54:11.977Z,90.29
2018-01-18T00:55:22.234Z,90.48
2018-01-18T00:56:32.377Z,90.48
2018-01-18T00:57:42.593Z,90.58
2018-01-18T00:58:52.746Z,90.58
2018-01-18T01:00:02.886Z,90.48
2018-01-18T01:01:13.203Z,90.48
2018-01-18T01:02:23.088Z,90.01
2018-01-18T01:03:33.453Z,90.67
2018-01-18T01:04:43.568Z,89.91
2018-01-18T01:05:53.714Z,90.58
2018-01-18T01:07:03.948Z,90.1
2018-01-18T01:08:14.138Z,90.01
2018-01-18T01:09:24.289Z,90.1
2018-01-18T01:10:34.526Z,90.1
2018-01-18T01:11:44.693Z,90.2
2018-01-18T01:12:54.824Z,90.29
2018-01-18T01:14:04.959Z,89.82
2018-01-18T01:15:15.084Z,90.2
2018-01-18T01:16:25.303Z,89.72
2018-01-18T01:17:35.421Z,89.72
2018-01-18T01:18:45.587Z,89.72
2018-01-18T01:19:55.716Z,89.91
2018-01-18T01:21:05.826Z,89.91
2018-01-18T01:22:15.962Z,89.72
2018-01-18T01:23:26.148Z,90.1
2018-01-18T01:24:36.262Z,90.39
2018-01-18T01:25:46.384Z,89.91
2018-01-18T01:26:56.555Z,89.91
2018-01-18T01:28:06.423Z,89.82
2018-01-18T01:29:16.646Z,89.91
2018-01-18T01:30:26.786Z,90.2
2018-01-18T01:31:36.911Z,90.58
2018-01-18T01:32:46.869Z,90.58
2018-01-18T01:33:56.773Z,89.91
2018-01-18T01:35:06.925Z,89.91
2018-01-18T01:36:17.054Z,90.2
2018-01-18T01:37:27.289Z,90.39
2018-01-18T01:38:37.435Z,90.58
2018-01-18T01:39:47.594Z,90.01
2018-01-18T01:40:57.724Z,90.2
2018-01-18T01:42:07.836Z,90.1
2018-01-18T01:43:18.945Z,90.01
2018-01-18T01:44:29.072Z,89.44
2018-01-18T01:45:40.172Z,90.1
2018-01-18T01:46:50.475Z,89.91
2018-01-18T01:48:00.612Z,89.53
2018-01-18T01:49:10.763Z,89.63
2018-01-18T01:50:20.950Z,89.63
2018-01-18T01:51:31.070Z,89.91
2018-01-18T01:52:41.205Z,90.1
2018-01-18T01:53:51.338Z,89.53
2018-01-18T01:55:01.435Z,90.1
2018-01-18T01:56:11.543Z,89.91
2018-01-18T01:57:21.660Z,90.1
2018-01-18T01:58:31.808Z,89.53
2018-01-18T01:59:42.038Z,89.34
2018-01-18T02:00:52.182Z,89.72
2018-01-18T02:02:02.361Z,89.63
2018-01-18T02:03:12.221Z,89.34
2018-01-18T02:04:22.347Z,89.72
2018-01-18T02:05:32.524Z,89.53
2018-01-18T02:06:42.771Z,89.53
2018-01-18T02:07:52.931Z,89.91
2018-01-18T02:09:03.097Z,89.91
2018-01-18T02:10:13.222Z,89.91
2018-01-18T02:11:23.328Z,89.91
2018-01-18T02:12:33.544Z,89.53
2018-01-18T02:13:43.703Z,89.34
2018-01-18T02:14:53.884Z,89.44
2018-01-18T02:16:04.073Z,88.96
2018-01-18T02:17:14.443Z,89.15
2018-01-18T02:18:24.581Z,88.96
2018-01-18T02:19:34.672Z,88.87
2018-01-18T02:20:44.812Z,89.25
2018-01-18T02:21:55.123Z,88.96
2018-01-18T02:23:05.307Z,89.25
2018-01-18T02:24:15.420Z,88.96
2018-01-18T02:25:25.525Z,88.87
2018-01-18T02:26:35.637Z,89.06
2018-01-18T02:27:45.761Z,88.78
2018-01-18T02:28:56.109Z,88.59
2018-01-18T02:30:06.221Z,88.78
2018-01-18T02:31:16.440Z,88.87
2018-01-18T02:32:26.582Z,88.96
2018-01-18T02:33:36.924Z,88.78
2018-01-18T02:34:46.411Z,88.87
2018-01-18T02:35:56.535Z,88.96
2018-01-18T02:37:06.718Z,88.78
2018-01-18T02:38:16.862Z,88.87
2018-01-18T02:39:27.060Z,88.59
2018-01-18T02:40:37.194Z,88.49
2018-01-18T02:41:47.347Z,88.49
2018-01-18T02:42:57.482Z,88.49
2018-01-18T02:44:07.616Z,88.68
2018-01-18T02:45:17.782Z,88.68
2018-01-18T02:46:27.965Z,88.4
2018-01-18T02:47:38.190Z,87.64
2018-01-18T02:48:48.333Z,88.21
2018-01-18T02:49:58.519Z,87.83
2018-01-18T02:51:08.730Z,88.21
2018-01-18T02:52:18.602Z,88.02
2018-01-18T02:53:28.763Z,87.83
2018-01-18T02:54:38.890Z,87.92
2018-01-18T02:55:49.199Z,88.11
2018-01-18T02:56:59.320Z,88.11
2018-01-18T02:58:09.544Z,88.11
2018-01-18T02:59:20.801Z,88.21
2018-01-18T03:00:30.981Z,87.92
2018-01-18T03:01:41.258Z,87.92
2018-01-18T03:02:51.426Z,88.02
2018-01-18T03:04:01.283Z,88.21
2018-01-18T03:05:11.509Z,88.4
2018-01-18T03:06:21.653Z,88.11
2018-01-18T03:07:31.945Z,88.11
2018-01-18T03:08:42.149Z,88.11
2018-01-18T03:09:52.290Z,87.64
2018-01-18T03:11:02.524Z,88.02
2018-01-18T03:12:12.705Z,88.11
2018-01-18T03:13:22.813Z,88.02
2018-01-18T03:14:32.977Z,88.02
2018-01-18T03:15:43.097Z,87.83
2018-01-18T03:16:53.263Z,87.83
2018-01-18T03:18:03.476Z,87.83
2018-01-18T03:19:13.627Z,87.64
2018-01-18T03:20:23.740Z,87.73
2018-01-18T03:21:33.868Z,87.92
2018-01-18T03:22:44.003Z,87.83
2018-01-18T03:23:54.043Z,87.83
2018-01-18T03:25:04.266Z,87.64
2018-01-18T03:26:14.454Z,87.92
2018-01-18T03:27:24.646Z,87.83
2018-01-18T03:28:34.889Z,88.11
2018-01-18T03:29:45.095Z,88.11
2018-01-18T03:30:55.218Z,88.21
2018-01-18T03:32:05.329Z,87.59
2018-01-18T03:33:15.453Z,87.92
2018-01-18T03:34:25.566Z,88.54
2018-01-18T03:35:35.658Z,88.26
2018-01-18T03:36:45.768Z,88.17
2018-01-18T03:37:55.873Z,88.07
2018-01-18T03:39:05.998Z,87.98
2018-01-18T03:40:16.191Z,88.35
2018-01-18T03:41:26.412Z,88.17
2018-01-18T03:42:36.248Z,88.82
2018-01-18T03:43:46.420Z,88.64
2018-01-18T03:44:56.641Z,88.54
2018-01-18T03:46:07.752Z,88.54
2018-01-18T03:47:17.856Z,88.82
2018-01-18T03:48:27.992Z,88.54
2018-01-18T03:49:37.745Z,88.82
2018-01-18T03:50:47.891Z,88.82
2018-01-18T03:51:57.993Z,88.73
2018-01-18T03:53:08.109Z,88.64
2018-01-18T03:54:18.239Z,88.54
2018-01-18T03:55:28.348Z,88.64
2018-01-18T03:56:38.481Z,88.92
2018-01-18T03:57:48.676Z,88.35
2018-01-18T03:58:58.816Z,88.64
2018-01-18T04:00:08.938Z,88.54
2018-01-18T04:01:19.102Z,88.64
2018-01-18T04:02:29.315Z,88.82
2018-01-18T04:03:39.459Z,89.01
2018-01-18T04:04:49.566Z,88.82
2018-01-18T04:05:59.818Z,89.01
2018-01-18T04:07:09.915Z,88.82
2018-01-18T04:08:20.036Z,88.82
2018-01-18T04:09:30.179Z,88.73
2018-01-18T04:10:40.416Z,88.82
2018-01-18T04:11:50.614Z,88.82
2018-01-18T04:13:01.695Z,88.82
2018-01-18T04:14:11.809Z,88.82
2018-01-18T04:15:21.968Z,88.35
2018-01-18T04:16:32.138Z,88.92
2018-01-18T04:17:42.308Z,89.01
2018-01-18T04:18:52.178Z,89.01
2018-01-18T04:20:02.307Z,89.01
2018-01-18T04:21:12.506Z,88.92
2018-01-18T04:22:22.622Z,89.11
2018-01-18T04:23:32.724Z,89.01
2018-01-18T04:24:42.589Z,89.2
2018-01-18T04:25:52.791Z,89.49
2018-01-18T04:27:02.992Z,89.11
2018-01-18T04:28:12.852Z,89.77
2018-01-18T04:29:23.021Z,89.68
2018-01-18T04:30:33.206Z,89.77
2018-01-18T04:31:43.302Z,89.49
2018-01-18T04:32:53.437Z,89.3
2018-01-18T04:34:03.600Z,89.2
2018-01-18T04:35:13.834Z,89.68
2018-01-18T04:36:23.963Z,89.58
2018-01-18T04:37:34.149Z,89.68
2018-01-18T04:38:44.110Z,89.11
2018-01-18T04:39:54.286Z,89.96
2018-01-18T04:41:04.400Z,89.58
2018-01-18T04:42:14.531Z,89.3
2018-01-18T04:43:24.667Z,89.2
2018-01-18T04:44:35.029Z,89.96
2018-01-18T04:45:45.149Z,89.68
2018-01-18T04:46:55.408Z,89.68
2018-01-18T04:48:05.667Z,89.68
2018-01-18T04:49:15.782Z,89.68
2018-01-18T04:50:25.902Z,89.77
2018-01-18T04:51:36.009Z,89.49
2018-01-18T04:52:46.114Z,89.49
2018-01-18T04:53:56.277Z,89.49
2018-01-18T04:55:06.435Z,89.68
2018-01-18T04:56:16.671Z,89.3
2018-01-18T04:57:26.847Z,89.68
2018-01-18T04:58:37.226Z,89.49
2018-01-18T04:59:47.349Z,89.49
2018-01-18T05:00:57.463Z,89.58
2018-01-18T05:02:07.577Z,89.49
2018-01-18T05:03:17.500Z,89.58
2018-01-18T05:04:27.726Z,89.3
2018-01-18T05:05:37.880Z,89.3
2018-01-18T05:06:48.004Z,89.68
2018-01-18T05:07:58.116Z,89.49
2018-01-18T05:09:08.242Z,89.68
2018-01-18T05:10:17.861Z,89.49
2018-01-18T05:11:27.994Z,89.58
2018-01-18T05:12:38.104Z,89.96
2018-01-18T05:13:48.157Z,90.06
2018-01-18T05:14:58.377Z,89.58
2018-01-18T05:16:08.583Z,89.96
2018-01-18T05:17:18.710Z,90.06
2018-01-18T05:18:28.911Z,89.87
2018-01-18T05:19:39.305Z,89.87
2018-01-18T05:20:49.451Z,89.49
2018-01-18T05:21:59.673Z,89.87
2018-01-18T05:23:09.878Z,89.58
2018-01-18T05:24:20.128Z,89.77
2018-01-18T05:25:30.332Z,89.77
2018-01-18T05:26:40.545Z,89.77
2018-01-18T05:27:50.736Z,89.77
2018-01-18T05:29:00.910Z,89.96
2018-01-18T05:30:10.870Z,89.77
2018-01-18T05:31:21.013Z,90.06
2018-01-18T05:32:31.161Z,89.77
2018-01-18T05:33:41.395Z,89.87
2018-01-18T05:34:51.560Z,89.77
2018-01-18T05:36:01.773Z,89.68
2018-01-18T05:37:11.927Z,89.77
2018-01-18T05:38:22.066Z,89.87
2018-01-18T05:39:32.174Z,90.06
2018-01-18T05:40:42.326Z,89.87
2018-01-18T05:41:52.513Z,89.87
2018-01-18T05:43:02.701Z,89.77
2018-01-18T05:44:12.881Z,89.68
2018-01-18T05:45:23.086Z,89.58
2018-01-18T05:46:33.264Z,89.77
2018-01-18T05:47:43.493Z,89.91
2018-01-18T05:48:53.631Z,89.96
2018-01-18T05:50:03.765Z,89.91
2018-01-18T05:51:13.893Z,89.87
2018-01-18T05:52:24.050Z,89.87
2018-01-18T05:53:34.160Z,89.91
2018-01-18T05:54:44.273Z,89.49
2018-01-18T05:55:54.617Z,89.53
2018-01-18T05:57:04.762Z,89.72
2018-01-18T05:58:14.899Z,89.44
2018-01-18T05:59:25.017Z,89.68
2018-01-18T06:00:35.153Z,89.72
2018-01-18T06:01:45.296Z,89.82
2018-01-18T06:02:55.415Z,89.44
2018-01-18T06:04:05.685Z,89.53
2018-01-18T06:05:16.022Z,89.53
2018-01-18T06:06:26.237Z,89.34
2018-01-18T06:07:36.427Z,89.25
2018-01-18T06:08:46.611Z,89.44
2018-01-18T06:09:56.790Z,89.44
2018-01-18T06:11:07.030Z,88.96
2018-01-18T06:12:16.925Z,89.15
2018-01-18T06:13:27.050Z,89.06
2018-01-18T06:14:37.189Z,89.15
2018-01-18T06:15:47.349Z,88.87
2018-01-18T06:16:57.599Z,88.78
2018-01-18T06:18:07.762Z,88.87
2018-01-18T06:19:18.050Z,88.96
2018-01-18T06:20:28.196Z,88.78
2018-01-18T06:21:38.107Z,88.78
2018-01-18T06:22:48.263Z,88.87
2018-01-18T06:23:58.112Z,88.49
2018-01-18T06:25:07.989Z,88.3
2018-01-18T06:26:18.081Z,88.11
2018-01-18T06:27:28.286Z,88.3
2018-01-18T06:28:38.443Z,88.11
2018-01-18T06:29:48.308Z,88.02
2018-01-18T06:30:58.478Z,87.83
2018-01-18T06:32:08.627Z,87.83
2018-01-18T06:33:18.761Z,87.92
2018-01-18T06:34:28.994Z,88.11
2018-01-18T06:35:38.891Z,88.21
2018-01-18T06:36:48.762Z,88.11
2018-01-18T06:37:58.937Z,88.11
2018-01-18T06:39:09.059Z,88.11
2018-01-18T06:40:19.189Z,88.21
2018-01-18T06:41:29.304Z,88.02
2018-01-18T06:42:39.613Z,88.11
2018-01-18T06:43:49.797Z,88.21
2018-01-18T06:45:00.032Z,88.21
2018-01-18T06:46:10.162Z,88.3
2018-01-18T06:47:20.265Z,88.02
2018-01-18T06:48:30.365Z,87.73
2018-01-18T06:49:40.556Z,88.3
2018-01-18T06:50:50.739Z,88.3
2018-01-18T06:52:00.859Z,88.78
2018-01-18T06:53:10.679Z,88.68
2018-01-18T06:54:20.819Z,88.49
2018-01-18T06:55:31.026Z,88.59
2018-01-18T06:56:40.968Z,88.78
2018-01-18T06:57:51.066Z,89.06
2018-01-18T06:59:01.215Z,88.96
2018-01-18T07:00:11.399Z,89.25
2018-01-18T07:01:21.517Z,89.25
2018-01-18T07:02:31.645Z,89.44
2018-01-18T07:03:41.763Z,89.63
2018-01-18T07:04:51.938Z,89.82
2018-01-18T07:06:02.075Z,89.91
2018-01-18T07:07:12.303Z,89.44
2018-01-18T07:08:22.163Z,89.82
2018-01-18T07:09:32.376Z,89.44
2018-01-18T07:10:42.595Z,90.1
2018-01-18T07:11:52.772Z,89.53
2018-01-18T07:13:02.636Z,89.91
2018-01-18T07:14:12.757Z,89.63
2018-01-18T07:15:22.881Z,90.1
2018-01-18T07:16:33.123Z,90.1
2018-01-18T07:17:43.338Z,90.1
2018-01-18T07:18:53.574Z,90.58
2018-01-18T07:20:03.803Z,90.48
2018-01-18T07:21:13.942Z,90.48
2018-01-18T07:22:24.064Z,90.39
2018-01-18T07:23:34.203Z,90.39
2018-01-18T07:24:44.342Z,90.67
2018-01-18T07:25:54.676Z,90.58
2018-01-18T07:27:04.806Z,90.29
2018-01-18T07:28:14.921Z,90.77
2018-01-18T07:29:25.089Z,90.58
2018-01-18T07:30:35.031Z,90.39
2018-01-18T07:31:44.879Z,91.05
2018-01-18T07:32:54.998Z,91.05
2018-01-18T07:34:04.984Z,90.86
2018-01-18T07:35:15.209Z,91.14
2018-01-18T07:36:25.385Z,90.86
2018-01-18T07:37:35.627Z,90.86
2018-01-18T07:38:45.902Z,91.33
2018-01-18T07:39:56.050Z,91.24
2018-01-18T07:41:06.259Z,91.05
2018-01-18T07:42:16.138Z,91.33
2018-01-18T07:43:26.320Z,91.24
2018-01-18T07:44:36.437Z,91.05
2018-01-18T07:45:46.552Z,91.9
2018-01-18T07:46:56.662Z,92.38
2018-01-18T07:48:06.796Z,92.09
2018-01-18T07:49:16.950Z,92.38
2018-01-18T07:50:27.126Z,92.24
2018-01-18T07:51:37.350Z,92.43
2018-01-18T07:52:47.465Z,92.8
2018-01-18T07:53:57.703Z,93.08
2018-01-18T07:55:08.043Z,93.18
2018-01-18T07:56:18.175Z,92.99
2018-01-18T07:57:28.484Z,92.8
2018-01-18T07:58:38.750Z,92.71
2018-01-18T07:59:48.967Z,93.27
2018-01-18T08:00:59.255Z,93.18
2018-01-18T08:02:09.392Z,93.56
2018-01-18T08:03:19.290Z,93.46
2018-01-18T08:04:29.397Z,93.37
2018-01-18T08:05:39.612Z,93.84
2018-01-18T08:06:49.572Z,94.04
2018-01-18T08:07:59.677Z,93.84
2018-01-18T08:09:09.817Z,94.23
2018-01-18T08:10:19.965Z,93.84
2018-01-18T08:11:30.224Z,94.04
2018-01-18T08:12:40.066Z,94.7
2018-01-18T08:13:50.180Z,94.89
2018-01-18T08:15:00.327Z,94.42
2018-01-18T08:16:10.457Z,94.79
2018-01-18T08:17:20.588Z,95.17
2018-01-18T08:18:30.694Z,95.07
2018-01-18T08:19:40.828Z,94.98
2018-01-18T08:20:50.998Z,95.17
2018-01-18T08:22:01.189Z,95.36
2018-01-18T08:23:11.354Z,95.36
2018-01-18T08:24:21.552Z,96.21
2018-01-18T08:25:31.738Z,95.55
2018-01-18T08:26:41.986Z,96.21
2018-01-18T08:27:51.902Z,95.93
2018-01-18T08:29:02.026Z,96.02
2018-01-18T08:30:12.250Z,96.31
2018-01-18T08:31:22.445Z,96.02
2018-01-18T08:32:32.326Z,96.12
2018-01-18T08:33:42.460Z,95.64
2018-01-18T08:34:52.764Z,95.83
2018-01-18T08:36:02.604Z,95.55
2018-01-18T08:37:12.812Z,96.12
2018-01-18T08:38:22.675Z,96.4
2018-01-18T08:39:32.813Z,97.06
2018-01-18T08:40:42.945Z,96.21
2018-01-18T08:41:53.049Z,96.31
2018-01-18T08:43:03.231Z,96.21
2018-01-18T08:44:13.443Z,97.16
2018-01-18T08:45:23.619Z,96.59
2018-01-18T08:46:33.783Z,96.88
2018-01-18T08:47:44.046Z,97.16
2018-01-18T08:48:54.327Z,96.69
2018-01-18T08:50:04.501Z,96.97
2018-01-18T08:51:14.768Z,97.25
2018-01-18T08:52:24.985Z,96.69
2018-01-18T08:53:35.255Z,96.88
2018-01-18T08:54:45.460Z,97.44
2018-01-18T08:55:55.613Z,96.97
2018-01-18T08:57:05.836Z,97.35
2018-01-18T08:58:16.139Z,97.73
2018-01-18T08:59:26.352Z,97.44
2018-01-18T09:00:36.473Z,97.44
2018-01-18T09:01:46.633Z,97.54
2018-01-18T09:02:56.793Z,97.25
2018-01-18T09:04:06.984Z,97.25
2018-01-18T09:05:16.842Z,97.25
2018-01-18T09:06:27.096Z,97.44
2018-01-18T09:07:37.247Z,97.35
2018-01-18T09:08:47.342Z,97.63
2018-01-18T09:09:57.485Z,97.25
2018-01-18T09:11:07.644Z,97.25
2018-01-18T09:12:17.773Z,97.25
2018-01-18T09:13:27.973Z,97.16
2018-01-18T09:14:38.179Z,97.54
2018-01-18T09:15:48.540Z,97.35
2018-01-18T09:16:58.741Z,97.44
2018-01-18T09:18:08.925Z,97.25
2018-01-18T09:19:19.121Z,97.25
2018-01-18T09:20:29.270Z,97.54
2018-01-18T09:21:39.637Z,97.16
2018-01-18T09:22:49.825Z,97.44
2018-01-18T09:23:59.941Z,97.63
2018-01-18T09:25:10.293Z,97.16
2018-01-18T09:26:20.509Z,97.25
2018-01-18T09:27:30.699Z,97.16
2018-01-18T09:28:40.947Z,97.25
2018-01-18T09:29:51.116Z,97.63
2018-01-18T09:31:01.256Z,97.63
2018-01-18T09:32:11.529Z,97.82
2018-01-18T09:33:21.788Z,97.63
2018-01-18T09:34:32.899Z,98.2
2018-01-18T09:35:42.988Z,98.39
2018-01-18T09:36:53.119Z,97.82
2018-01-18T09:38:03.264Z,98.49
2018-01-18T09:39:13.401Z,98.01
2018-01-18T09:40:23.627Z,98.49
2018-01-18T09:41:33.806Z,98.49
2018-01-18T09:42:44.036Z,98.39
2018-01-18T09:43:54.165Z,98.11
2018-01-18T09:45:04.360Z,98.16
2018-01-18T09:46:14.644Z,98.68
2018-01-18T09:47:24.758Z,98.06
2018-01-18T09:48:34.891Z,98.2
2018-01-18T09:49:45.044Z,97.97
2018-01-18T09:50:55.202Z,98.16
2018-01-18T09:52:05.147Z,98.25
2018-01-18T09:53:15.263Z,97.97
2018-01-18T09:54:25.418Z,97.97
2018-01-18T09:55:35.774Z,98.16
2018-01-18T09:56:45.889Z,98.35
2018-01-18T09:57:56.020Z,98.44
2018-01-18T09:59:06.161Z,97.87
2018-01-18T10:00:16.405Z,97.68
2018-01-18T10:01:26.585Z,98.06
2018-01-18T10:02:36.693Z,98.44
2018-01-18T10:03:46.853Z,97.97
2018-01-18T10:04:56.972Z,97.4
2018-01-18T10:06:07.085Z,97.11
2018-01-18T10:07:17.270Z,97.68
2018-01-18T10:08:27.462Z,97.4
2018-01-18T10:09:37.347Z,97.4
2018-01-18T10:10:47.459Z,97.59
2018-01-18T10:11:57.604Z,97.68
2018-01-18T10:13:07.846Z,97.78
2018-01-18T10:14:18.200Z,97.68
2018-01-18T10:15:28.568Z,97.21
2018-01-18T10:16:38.717Z,97.49
2018-01-18T10:17:48.852Z,97.4
2018-01-18T10:18:59.019Z,97.68
2018-01-18T10:20:09.174Z,97.11
2018-01-18T10:21:19.393Z,97.4
2018-01-18T10:22:29.640Z,97.11
2018-01-18T10:23:39.805Z,97.21
2018-01-18T10:24:50.031Z,97.4
2018-01-18T10:26:00.191Z,96.78
2018-01-18T10:27:10.572Z,97.07
2018-01-18T10:28:20.694Z,96.69
2018-01-18T10:29:30.814Z,96.78
2018-01-18T10:30:40.996Z,96.5
2018-01-18T10:31:51.156Z,96.88
2018-01-18T10:33:01.051Z,96.78
2018-01-18T10:34:11.174Z,96.69
2018-01-18T10:35:21.289Z,96.69
2018-01-18T10:36:31.414Z,96.5
2018-01-18T10:37:41.554Z,96.22
2018-01-18T10:38:51.698Z,95.93
2018-01-18T10:40:02.887Z,96.12
2018-01-18T10:41:13.071Z,96.12
2018-01-18T10:42:23.256Z,96.03
2018-01-18T10:43:33.370Z,95.65
2018-01-18T10:44:43.505Z,95.74
2018-01-18T10:45:53.418Z,95.79
2018-01-18T10:47:03.876Z,95.88
2018-01-18T10:48:13.997Z,95.6
2018-01-18T10:49:24.256Z,95.6
2018-01-18T10:50:34.497Z,95.31
2018-01-18T10:51:44.791Z,95.41
2018-01-18T10:52:55.058Z,95.41
2018-01-18T10:54:05.242Z,94.65
2018-01-18T10:55:15.407Z,94.56
2018-01-18T10:56:25.554Z,94.65
2018-01-18T10:57:35.855Z,94.56
2018-01-18T10:58:46.002Z,93.8
2018-01-18T10:59:56.420Z,94.18
2018-01-18T11:01:06.581Z,94.37
2018-01-18T11:02:16.786Z,93.94
2018-01-18T11:03:26.990Z,93.65
2018-01-18T11:04:37.228Z,94.03
2018-01-18T11:05:47.453Z,94.03
2018-01-18T11:06:57.635Z,93.84
2018-01-18T11:08:07.869Z,93.75
2018-01-18T11:09:18.084Z,93.94
2018-01-18T11:10:28.202Z,94.03
2018-01-18T11:11:39.297Z,94.13
2018-01-18T11:12:49.186Z,93.94
2018-01-18T11:13:59.075Z,94.13
2018-01-18T11:15:09.258Z,93.37
2018-01-18T11:16:19.529Z,93.18
2018-01-18T11:17:29.458Z,93.27
2018-01-18T11:18:39.581Z,93.27
2018-01-18T11:19:49.722Z,93.46
2018-01-18T11:20:59.895Z,92.8
2018-01-18T11:22:10.090Z,93.08
2018-01-18T11:23:19.980Z,93.08
2018-01-18T11:24:30.097Z,92.71
2018-01-18T11:25:40.219Z,92.9
2018-01-18T11:26:50.359Z,92.42
2018-01-18T11:28:00.658Z,92.28
2018-01-18T11:29:10.809Z,92.23
2018-01-18T11:30:21.075Z,91.85
2018-01-18T11:31:31.304Z,92.52
2018-01-18T11:32:41.558Z,92.47
2018-01-18T11:33:51.756Z,92.14
2018-01-18T11:35:01.990Z,92.8
2018-01-18T11:36:12.150Z,93.08
2018-01-18T11:37:22.332Z,93.37
2018-01-18T11:38:32.645Z,93.56
2018-01-18T11:39:42.849Z,93.46
2018-01-18T11:40:53.138Z,93.27
2018-01-18T11:42:04.295Z,93.37
2018-01-18T11:43:14.428Z,92.75
2018-01-18T11:44:24.648Z,92.51
2018-01-18T11:45:34.554Z,91.56
2018-01-18T11:46:45.643Z,90.99
2018-01-18T11:47:55.785Z,90.61
2018-01-18T11:49:05.988Z,89.67
2018-01-18T11:50:16.311Z,89
2018-01-18T11:51:26.557Z,88
2018-01-18T11:52:36.820Z,87.62
2018-01-18T11:53:46.980Z,87.43
2018-01-18T11:54:57.152Z,87.09
2018-01-18T11:56:07.279Z,85.86
2018-01-18T11:57:17.409Z,85.24
2018-01-18T11:58:27.569Z,84.66
2018-01-18T11:59:37.706Z,84.81
2018-01-18T12:00:47.837Z,85.04
2018-01-18T12:01:57.735Z,84.43
2018-01-18T12:03:07.891Z,85.1
2018-01-18T12:04:18.037Z,84.62
2018-01-18T12:05:28.394Z,85
2018-01-18T12:06:38.527Z,85.05
2018-01-18T12:07:48.720Z,85.24
2018-01-18T12:08:58.922Z,85.81
2018-01-18T12:10:08.775Z,85.91
2018-01-18T12:11:18.935Z,86
2018-01-18T12:12:29.095Z,86.05
2018-01-18T12:13:39.331Z,86.34
2018-01-18T12:14:49.569Z,86.72
2018-01-18T12:15:59.794Z,86.91
2018-01-18T12:17:09.963Z,86.72
2018-01-18T12:18:19.868Z,86.82
2018-01-18T12:19:29.979Z,87.38
2018-01-18T12:20:40.186Z,87.1
2018-01-18T12:21:50.415Z,87.48
2018-01-18T12:23:00.545Z,87.57
2018-01-18T12:24:10.720Z,87.67
2018-01-18T12:25:20.554Z,87.76
2018-01-18T12:26:30.740Z,87.76
2018-01-18T12:27:41.004Z,88.05
2018-01-18T12:28:51.263Z,88.24
2018-01-18T12:30:01.203Z,88.24
2018-01-18T12:31:11.323Z,88.34
2018-01-18T12:32:21.545Z,87.48
2018-01-18T12:33:31.701Z,87.67
2018-01-18T12:34:41.832Z,88.15
2018-01-18T12:35:51.760Z,87.86
2018-01-18T12:37:01.886Z,87.86
2018-01-18T12:38:12.018Z,87.76
2018-01-18T12:39:22.214Z,87.76
2018-01-18T12:40:32.385Z,87.29
2018-01-18T12:41:42.558Z,87.1
2018-01-18T12:42:53.062Z,87.29
2018-01-18T12:44:03.257Z,86.53
2018-01-18T12:45:13.417Z,86.86
2018-01-18T12:46:23.604Z,86.86
2018-01-18T12:47:33.796Z,86.47
2018-01-18T12:48:43.980Z,86.19
2018-01-18T12:49:54.228Z,85.91
2018-01-18T12:51:04.380Z,86.19
2018-01-18T12:52:14.358Z,85.81
2018-01-18T12:53:24.489Z,85.53
2018-01-18T12:54:34.677Z,84.01
2018-01-18T12:55:44.862Z,83.82
2018-01-18T12:56:54.786Z,80.87
2018-01-18T12:58:04.970Z,80.3
2018-01-18T12:59:15.137Z,79.25
2018-01-18T13:00:25.337Z,78.97
2018-01-18T13:01:35.513Z,78.02
2018-01-18T13:02:45.806Z,78.11
2018-01-18T13:03:55.984Z,77.36
2018-01-18T13:05:06.213Z,78.02
2018-01-18T13:06:16.451Z,78.3
2018-01-18T13:07:26.637Z,78.11
2018-01-18T13:08:36.768Z,78.97
2018-01-18T13:09:47.076Z,79.35
2018-01-18T13:10:57.251Z,80.11
2018-01-18T13:12:07.470Z,79.83
2018-01-18T13:13:17.357Z,80.11
2018-01-18T13:14:27.495Z,80.3
2018-01-18T13:15:37.614Z,80.4
2018-01-18T13:16:47.491Z,81.12
2018-01-18T13:17:57.642Z,81.97
2018-01-18T13:19:07.874Z,82.35
2018-01-18T13:20:18.032Z,82.54
2018-01-18T13:21:28.241Z,82.73
2018-01-18T13:22:38.460Z,83.01
2018-01-18T13:23:48.770Z,83.01
2018-01-18T13:24:59.026Z,83.01
2018-01-18T13:26:09.285Z,83.11
2018-01-18T13:27:19.443Z,82.64
2018-01-18T13:28:30.582Z,81.97
2018-01-18T13:29:40.775Z,82.26
2018-01-18T13:30:51.008Z,82.07
2018-01-18T13:32:01.231Z,82.07
2018-01-18T13:33:11.437Z,82.16
2018-01-18T13:34:21.701Z,81.68
2018-01-18T13:35:31.898Z,81.97
2018-01-18T13:36:42.106Z,82.73
2018-01-18T13:37:52.269Z,83.2
2018-01-18T13:39:02.424Z,83.78
2018-01-18T13:40:12.665Z,84.53
2018-01-18T13:41:23.053Z,84.68
2018-01-18T13:42:33.302Z,85.06
2018-01-18T13:43:43.593Z,86.3
2018-01-18T13:44:53.758Z,86.87
2018-01-18T13:46:04.000Z,87.05
2018-01-18T13:47:14.188Z,87.91
2018-01-18T13:48:24.350Z,87.91
2018-01-18T13:49:34.602Z,88.86
2018-01-18T13:50:44.757Z,89.14
2018-01-18T13:51:55.026Z,89.33
2018-01-18T13:53:05.207Z,90
2018-01-18T13:54:15.521Z,89.67
2018-01-18T13:55:25.794Z,90.81
2018-01-18T13:56:36.024Z,90.62
2018-01-18T13:57:46.183Z,91.56
2018-01-18T13:58:56.326Z,91.75
2018-01-18T14:00:06.529Z,91.94
2018-01-18T14:01:16.796Z,92.04
2018-01-18T14:02:27.071Z,91.66
2018-01-18T14:03:37.378Z,92.23
2018-01-18T14:04:47.575Z,92.42
2018-01-18T14:05:57.775Z,92.23
2018-01-18T14:07:07.990Z,92.23
2018-01-18T14:08:18.261Z,92.8
2018-01-18T14:09:28.464Z,92.33
2018-01-18T14:10:38.654Z,92.61
2018-01-18T14:11:48.780Z,92.14
2018-01-18T14:12:59.030Z,92.61
2018-01-18T14:14:09.318Z,91.66
2018-01-18T14:15:19.510Z,91.47
2018-01-18T14:16:29.752Z,91.94
2018-01-18T14:17:39.964Z,91.19
2018-01-18T14:18:50.166Z,91.47
2018-01-18T14:20:00.443Z,91.56
2018-01-18T14:21:10.621Z,91.19
2018-01-18T14:22:20.792Z,91.38
2018-01-18T14:23:31.030Z,91
2018-01-18T14:24:41.272Z,90.52
2018-01-18T14:25:51.557Z,90.24
2018-01-18T14:27:01.754Z,89.76
2018-01-18T14:28:12.021Z,90.43
2018-01-18T14:29:22.300Z,90.81
2018-01-18T14:30:32.479Z,91.09
2018-01-18T14:31:42.666Z,90.14
2018-01-18T14:32:52.801Z,90.81
2018-01-18T14:34:02.991Z,90.81
2018-01-18T14:35:13.307Z,90.62
2018-01-18T14:36:23.531Z,90.81
2018-01-18T14:37:33.783Z,90.62
2018-01-18T14:38:43.963Z,90.81
2018-01-18T14:39:54.184Z,91
2018-01-18T14:41:04.324Z,91.14
2018-01-18T14:42:14.569Z,90.86
2018-01-18T14:43:24.777Z,91.42
2018-01-18T14:44:35.080Z,91.52
2018-01-18T14:45:45.249Z,91.33
2018-01-18T14:46:55.505Z,92.09
2018-01-18T14:48:05.805Z,92.18
2018-01-18T14:49:16.035Z,92.28
2018-01-18T14:50:26.185Z,91.9
2018-01-18T14:51:36.117Z,92.38
2018-01-18T14:52:46.289Z,93.04
2018-01-18T14:53:56.417Z,92.38
2018-01-18T14:55:06.591Z,93.04
2018-01-18T14:56:16.545Z,92.85
2018-01-18T14:57:26.676Z,92.76
2018-01-18T14:58:36.839Z,92.85
2018-01-18T14:59:47.043Z,92.94
2018-01-18T15:00:57.214Z,93.13
2018-01-18T15:02:07.469Z,92.94
2018-01-18T15:03:17.683Z,92.38
2018-01-18T15:04:27.900Z,92.76
2018-01-18T15:05:37.840Z,92.47
2018-01-18T15:06:48.001Z,93.04